logo
App data

The Guild Gold Edition

It’s the year 1400- the late Middle Ages. Europe sees the dawn of the golden age of the new departures and the free spirit. Under the rule of the bourgeoisie and businessmen, more and more towns are emerging from the clutches of the aristocracy and are achieving independence, power and wealth.
Store | Hub | SteamDB
Developer: 4HEAD Studios Publisher: THQ Nordic
Genre: Simulation, Strategy
Languages: English, German
Tags: Strategy (33), Simulation (29), Economy (11), Medieval (9)
Category: Single-player, Multi-player
Release date: Sep 9, 2014
Price: $9.99
Score rank: 34% Userscore: 71% Old userscore: 71% Metascore: 82%
Owners: 100,000 .. 200,000
Followers: 1,025
Peak concurrent players yesterday: 19
Playtime total: 00:59 (average) 00:12 (median)

Steam Spy is still in beta, so expect major bugs.

Owners data:

Access restricted.

This feature is only available to users with special access rights. Sorry.

If you want to proceed, you need to register or log in first and then back Steam Spy on Patreon. Look for Indie or Pro pledge.

Don't forget to use the same email as on Steam Spy!

Audience in 2 weeks:

Access restricted.

This feature is only available to users with special access rights. Sorry.

If you want to proceed, you need to register or log in first and then back Steam Spy on Patreon. Look for Indie or Pro pledge.

Don't forget to use the same email as on Steam Spy!

Peak daily concurrent players:

CCU data courtesy of SteamDB. Used with permission.

Hourly concurrent players:

YouTube:

The views data is based on top 50 videos uploaded last week. Actual number of views might be more than the number shown.

The displayed number of videos uploaded yesterday is limited to 50, so if there were more videos uploaded, the number will still show 50.

If the game has commonly used word as its name (like "FEAR" or "Volume") its number of Youtube views might be wrong.

Games similar to this one:

# Game Release date
Price
Score rank
(Userscore / Metascore)
Owners
Players
Playtime (Median)
1 Lazerbait Oct 14, 2016 Free97% (97%)20,000 .. 50,0000%00:00 (00:00)
2 Quar: Battle for Gate 18 Apr 4, 2016 $12.9987% (93%)20,000 .. 50,0000%00:00 (00:00)
3 Sacrifice Aug 19, 2009 $3.3979% (91%/89%)50,000 .. 100,0000%00:00 (00:00)
4 UFHO2 Apr 1, 2014 FreeN/A (N/A)20,000 .. 50,0000%00:00 (00:00)
5 Khet 2.0 Oct 1, 2014 $9.9979% (91%)50,000 .. 100,0000%00:00 (00:00)
6 Company of Heroes: Opposing Fronts Sep 24, 2007 $19.9979% (91%/87%)2,000,000 .. 5,000,0000%00:00 (00:00)
7 Swords and Soldiers HD Dec 2, 2010 $9.9979% (91%)200,000 .. 500,0000%00:00 (00:00)
8 X-COM: Apocalypse Sep 4, 2008 $4.9976% (90%)500,000 .. 1,000,0000%00:00 (00:00)
9 ThreadSpace: Hyperbol Jul 12, 2007 $9.99N/A (N/A)20,000 .. 50,0000%00:00 (00:00)
10 Silent Storm Gold Edition Sep 9, 2004 $9.9976% (90%/83%)200,000 .. 500,0000%00:00 (00:00)
11 Cosmic Trip May 24, 2017 $19.9973% (89%)0 .. 20,00016.67%00:31 (00:10)
12 Warhammer 40,000: Dawn of War – Winter Assault Aug 7, 2007 $12.9973% (89%)500,000 .. 1,000,0000.31%00:01 (00:00)
13 Archon Classic Nov 2, 2010 $9.9973% (89%)20,000 .. 50,0000%00:00 (00:00)
14 Codename: Panzers, Phase Two Jul 21, 2005 $14.9973% (89%/80%)20,000 .. 50,0000%00:00 (00:00)
15 Pang Adventures Apr 18, 2016 $9.9973% (89%)20,000 .. 50,0001.45%03:00 (01:00)
16 MoonBase Commander Aug 13, 2002 $5.9973% (89%/77%)20,000 .. 50,0000%00:00 (00:00)
17 Joint Task Force Mar 27, 2007 $9.9968% (87%/68%)20,000 .. 50,0000%00:00 (00:00)
18 Supreme Commander Sep 28, 2011 $14.9968% (87%/86%)500,000 .. 1,000,0000%00:00 (00:00)
19 Civilization IV: Warlords Jul 24, 2006 $4.9968% (87%/84%)1,000,000 .. 2,000,0000%00:00 (00:00)
20 Sang-Froid - Tales of Werewolves Apr 5, 2013 Free68% (87%/79%)200,000 .. 500,0000.68%08:46 (05:50)
21 Rush for Berlin Gold Oct 29, 2009 $4.9965% (86%/76%)0 .. 20,0000%00:00 (00:00)
22 Ground Control Anthology May 31, 2000 $4.9965% (86%/86%)0 .. 20,0000%00:00 (00:00)
23 Microgons Mar 27, 2017 FreeN/A (N/A)0 .. 20,0000%00:00 (00:00)
24 Magnifico Dec 2, 2014 $4.9962% (85%)0 .. 20,0000%00:00 (00:00)
25 Battle Academy Aug 4, 2010 $14.9962% (85%)20,000 .. 50,0001.64%00:14 (00:04)
26 Ground Control II: Operation Exodus Jun 18, 2004 $4.9960% (84%/80%)20,000 .. 50,0000%00:00 (00:00)
27 Eador: Genesis Aug 7, 2009 $5.9960% (84%)50,000 .. 100,0000%00:00 (00:00)
28 Cossacks: Art of War Aug 26, 2011 $4.9960% (84%/74%)50,000 .. 100,0000%00:00 (00:00)
29 Rooks Keep Dec 5, 2014 $7.9960% (84%)20,000 .. 50,0000%00:00 (00:00)
30 Conflict Desert Storm May 28, 2012 $6.9960% (84%/56%)20,000 .. 50,0000%00:00 (00:00)
31 Disciples Sacred Lands Gold Oct 4, 1999 $7.9957% (83%)50,000 .. 100,0000%00:00 (00:00)
32 Gunman Taco Truck Jan 28, 2017 $1.9957% (83%)0 .. 20,0000%00:00 (00:00)
33 Cluck Yegger in Escape From The Planet of The Poultroid Nov 9, 2015 $2.99N/A (N/A)0 .. 20,0000%00:00 (00:00)
34 Men of War: Red Tide Nov 1, 2009 $4.9955% (82%/77%)200,000 .. 500,0000%00:00 (00:00)
35 Commandos: Beyond the Call of Duty Mar 15, 2007 $4.9955% (82%)500,000 .. 1,000,0000.38%00:19 (00:06)
36 Space Empires IV Deluxe Feb 7, 2006 $9.9955% (82%/79%)50,000 .. 100,0000%00:00 (00:00)
37 Seven Kingdoms 2 HD Feb 4, 2015 $9.9955% (82%)20,000 .. 50,0000%00:00 (00:00)
38 SHOGUN: Total War - Collection Jun 13, 2000 $9.9955% (82%)100,000 .. 200,0000%00:00 (00:00)
39 Tiny Troopers Aug 24, 2012 $4.9952% (81%/57%)100,000 .. 200,0000%00:00 (00:00)
40 Wyrmsun May 22, 2015 Free52% (81%)50,000 .. 100,0000%00:00 (00:00)
41 Age of Wonders Oct 2010 $1.4952% (81%)100,000 .. 200,0001.75%00:05 (00:01)
42 Dwarfs!? May 4, 2011 $9.9952% (81%)200,000 .. 500,0000%00:00 (00:00)
43 Conquest of Elysium 3 Oct 24, 2012 $9.9950% (80%)20,000 .. 50,0000%00:00 (00:00)
44 ROD: Revolt Of Defense Aug 12, 2016 $0.9950% (80%)20,000 .. 50,0000%00:00 (00:00)
45 Dominions 3: The Awakening Sep 10, 2013 $4.9950% (80%/82%)0 .. 20,0000%00:00 (00:00)
46 Legends of Callasia Jun 10, 2016 $14.9950% (80%)50,000 .. 100,0000%00:00 (00:00)
47 Supreme Ruler 2020 Gold Jul 9, 2009 $9.9950% (80%/65%)50,000 .. 100,0000%00:00 (00:00)
48 Fate of the World Feb 28, 2011 $9.9950% (80%/70%)50,000 .. 100,0000%00:00 (00:00)
49 Perimeter May 21, 2004 $3.9950% (80%/77%)20,000 .. 50,0000%00:00 (00:00)
50 Fantasy Wars Aug 6, 2010 $4.9948% (79%/67%)50,000 .. 100,0000%00:00 (00:00)
51 Locoland Nov 22, 2003 $4.9948% (79%)0 .. 20,0000%00:00 (00:00)
52 Disciples II: Rise of the Elves Jul 6, 2006 $6.9948% (79%/80%)100,000 .. 200,0001.89%00:27 (00:09)
53 Starscape Nov 3, 2008 $7.9948% (79%)0 .. 20,0000%00:00 (00:00)
54 Demolition Inc. Sep 19, 2011 $5.9948% (79%)50,000 .. 100,0000%00:00 (00:00)
55 Honey Rose: Underdog Fighter Extraordinaire Sep 29, 2016 FreeN/A (N/A)20,000 .. 50,0000%00:00 (00:00)
56 Dangerous Waters Feb 7, 2006 $14.9946% (78%/82%)50,000 .. 100,0000%00:00 (00:00)
57 Cue Club 2: Pool & Snooker Mar 7, 2016 $18.9946% (78%)0 .. 20,0000%00:00 (00:00)
58 Reprisal Universe Sep 15, 2014 $6.9946% (78%)20,000 .. 50,0000%00:00 (00:00)
59 Harvest: Massive Encounter Jan 23, 2009 $7.9946% (78%)20,000 .. 50,0000%00:00 (00:00)
60 Age of Wonders II: The Wizard's Throne Oct 2010 $2.4946% (78%/86%)50,000 .. 100,0000%00:00 (00:00)
61 Imperium Romanum Gold Edition Nov 25, 2008 $9.9946% (78%/63%)100,000 .. 200,0000%00:00 (00:00)
62 A Healer Only Lives Twice Jun 2, 2016 $2.9944% (77%)0 .. 20,0000%00:00 (00:00)
63 Patrician III Nov 18, 2010 $4.9944% (77%/75%)100,000 .. 200,0000%00:00 (00:00)
64 WARSHIFT Oct 12, 2016 $12.9943% (76%)20,000 .. 50,0000%00:00 (00:00)
65 Praetorians Mar 10, 2003 $4.9943% (76%/78%)100,000 .. 200,0001.43%03:11 (01:03)
66 Cubemen Mar 16, 2012 $3.9943% (76%/74%)100,000 .. 200,0000%00:00 (00:00)
67 ORB Nov 8, 2002 $4.9943% (76%)20,000 .. 50,0000%00:00 (00:00)
68 Heroes of Might & Magic V: Hammers of Fate Oct 10, 2008 $9.9943% (76%/66%)200,000 .. 500,0001.18%00:33 (00:11)
69 Fritz for Fun 13 Aug 12, 2013 $19.99N/A (N/A)0 .. 20,0000%00:00 (00:00)
70 Civil War II Sep 17, 2013 $39.9941% (75%)0 .. 20,0000%00:00 (00:00)
71 World War I Jun 17, 2005 $4.9941% (75%)20,000 .. 50,0000%00:00 (00:00)
72 AirMech Command Mar 8, 2017 $19.9941% (75%)0 .. 20,0000%00:00 (00:00)
73 Perimeter: Emperor's Testament Aug 29, 2006 $3.99N/A (N/A/72%)20,000 .. 50,0000%00:00 (00:00)
74 Vegas: Make It Big Dec 21, 2006 $4.9939% (74%)20,000 .. 50,0000%00:00 (00:00)
75 TableTop Soccer Apr 22, 2016 $0.9939% (74%)0 .. 20,0000%00:00 (00:00)
76 688(I) Hunter/Killer Oct 26, 2006 $9.9939% (74%)20,000 .. 50,0000%00:00 (00:00)
77 Grand Ages: Rome Mar 20, 2009 $9.9937% (73%/72%)200,000 .. 500,0000%00:00 (00:00)
78 Battlestations: Midway Mar 15, 2007 $6.9937% (73%/76%)200,000 .. 500,0000.69%00:01 (00:00)
79 Children of Orc Dec 20, 2016 Free37% (73%)0 .. 20,0000%00:00 (00:00)
80 Cossacks: European Wars Aug 26, 2011 $4.9937% (73%/74%)100,000 .. 200,0000%00:00 (00:00)
81 Wildlife Park 2 - Crazy Zoo Mar 30, 2007 $3.99N/A (N/A)0 .. 20,0000%00:00 (00:00)
82 UFO: Aftershock Oct 21, 2005 $3.9934% (71%)20,000 .. 50,0000%00:00 (00:00)
83 Darwinia Jul 14, 2005 $9.9934% (71%/84%)500,000 .. 1,000,0000%00:00 (00:00)
84 War in a Box: Paper Tanks Jul 4, 2014 $4.9934% (71%)20,000 .. 50,0000%00:00 (00:00)
85 Rome: Total War - Alexander Aug 28, 2007 $4.9934% (71%/79%)500,000 .. 1,000,0000%00:00 (00:00)
86 Sub Command Oct 26, 2006 $9.99N/A (N/A/84%)20,000 .. 50,0000%00:00 (00:00)
87 Alea Jacta Est Sep 27, 2012 $24.9931% (69%)20,000 .. 50,0000%00:00 (00:00)
88 American Conquest Aug 26, 2011 $4.9931% (69%/76%)100,000 .. 200,0000%00:00 (00:00)
89 The Nightmare Cooperative Jul 16, 2014 $4.9931% (69%)50,000 .. 100,0000%00:00 (00:00)
90 Brigade E5: New Jagged Union Oct 17, 2006 $3.9931% (69%/41%)0 .. 20,0000%00:00 (00:00)
91 Void Destroyer Jan 20, 2015 $9.9929% (68%)20,000 .. 50,0000%00:00 (00:00)
92 Legions of Ashworld Jul 4, 2014 $4.99N/A (N/A)0 .. 20,0000%00:00 (00:00)
93 Cthulhu Realms Jul 1, 2016 N/A29% (68%)50,000 .. 100,0000%00:00 (00:00)
94 Europa Universalis: Rome - Gold Edition Dec 18, 2008 $2.4928% (67%/79%)100,000 .. 200,0002.27%100:48 (33:36)
95 Survivor Squad: Gauntlets Nov 16, 2015 $4.9928% (67%)20,000 .. 50,0000%00:00 (00:00)
96 American Conquest: Fight Back Aug 26, 2011 $4.9928% (67%/66%)100,000 .. 200,0000%00:00 (00:00)
97 Nomad Fleet Jul 14, 2015 $1.4928% (67%)0 .. 20,0000%00:00 (00:00)
98 Men of War: Condemned Heroes Apr 12, 2012 $7.9926% (66%/57%)100,000 .. 200,0000%00:00 (00:00)
99 Across the Rhine Jul 1, 1995 $6.99N/A (N/A)0 .. 20,0000%00:00 (00:00)
100 Full Spectrum Warrior: Ten Hammers Jul 17, 2007 $9.9926% (66%/70%)100,000 .. 200,0000%00:00 (00:00)
101 Marauder Sep 10, 2009 $9.9925% (65%)50,000 .. 100,0000%00:00 (00:00)
102 The Seven Years War (1756-1763) Oct 30, 2015 $19.9925% (65%)0 .. 20,0000%00:00 (00:00)
103 Planets Under Attack Sep 27, 2012 $9.9925% (65%)500,000 .. 1,000,0001.69%04:37 (05:25)
104 Hunters Of The Dead Sep 4, 2014 $0.9925% (65%)20,000 .. 50,0000%00:00 (00:00)
105 Rise: Battle Lines Nov 17, 2015 $1.9924% (64%)0 .. 20,0000%00:00 (00:00)
106 Port Royale 2 Jun 16, 2009 $4.9923% (63%/75%)50,000 .. 100,0000%00:00 (00:00)
107 Crusader Kings Complete Feb 14, 2012 $1.9923% (63%/73%)50,000 .. 100,0000%00:00 (00:00)
108 UFO: Afterlight Feb 8, 2007 $6.9923% (63%/71%)200,000 .. 500,0000%00:00 (00:00)
109 Desperados: Wanted Dead or Alive Jul 23, 2001 $4.9922% (62%/78%)100,000 .. 200,0000%00:00 (00:00)
110 Crown and Council Jan 27, 2017 Free22% (62%)50,000 .. 100,0001.64%00:17 (00:05)
111 Maelstrom: The Battle for Earth Begins Feb 13, 2009 $4.9922% (62%/58%)20,000 .. 50,0000%00:00 (00:00)
112 BattleLore: Command Nov 25, 2014 $6.9922% (62%)0 .. 20,0000%00:00 (00:00)
113 Robin Hood: The Legend of Sherwood Aug 26, 2011 $7.9920% (61%/80%)100,000 .. 200,0000.85%09:40 (03:13)
114 Codename: Panzers - Cold War May 6, 2009 $14.9920% (61%)20,000 .. 50,0000%00:00 (00:00)
115 To End All Wars Aug 29, 2014 $39.9920% (61%/71%)0 .. 20,0000%00:00 (00:00)
116 Hydrophobia: Prophecy May 9, 2011 $4.9920% (61%/64%)200,000 .. 500,0000%00:00 (00:00)
117 Quarantine Feb 9, 2017 $9.9920% (61%)0 .. 20,0000%00:00 (00:00)
118 Legions of Steel Jul 16, 2015 $19.99N/A (N/A/64%)0 .. 20,0000%00:00 (00:00)
119 Haegemonia: The Solon Heritage May 1, 2014 $1.9919% (60%)50,000 .. 100,0000%00:00 (00:00)
120 Steam 360 Video Player May 10, 2017 Free18% (59%)50,000 .. 100,0000%00:00 (00:00)
121 Sudden Strike 3 Dec 7, 2007 $5.99N/A (N/A)20,000 .. 50,0000%00:00 (00:00)
122 Blight of the Immortals Oct 25, 2016 FreeN/A (N/A)20,000 .. 50,0000%00:00 (00:00)
123 Rush for Glory Jun 16, 2014 $14.9917% (58%)50,000 .. 100,0000%00:00 (00:00)
124 Achron Aug 29, 2011 $19.9917% (58%/54%)0 .. 20,0000%00:00 (00:00)
125 9th Company: Roots Of Terror Dec 3, 2009 $9.9917% (58%)20,000 .. 50,0000%00:00 (00:00)
126 Crystal Rift Mar 30, 2016 $9.9917% (58%)0 .. 20,0000%00:00 (00:00)
127 Cossacks II: Battle for Europe Aug 26, 2011 $4.9916% (57%/69%)100,000 .. 200,0000%00:00 (00:00)
128 BC Kings Jun 16, 2009 $4.9915% (55%)20,000 .. 50,0000%00:00 (00:00)
129 Gratuitous Tank Battles May 17, 2012 $9.9915% (55%/69%)50,000 .. 100,0000%00:00 (00:00)
130 Earth 2140 Nov 15, 2013 $4.9914% (54%)200,000 .. 500,0001.14%05:14 (04:35)
131 Neocolonialism Nov 25, 2014 $3.99N/A (N/A)0 .. 20,0000%00:00 (00:00)
132 Space Trader: Merchant Marine Oct 23, 2008 $4.9913% (53%)200,000 .. 500,0000%00:00 (00:00)
133 Crusaders: Thy Kingdom Come Oct 8, 2009 $9.99N/A (N/A)20,000 .. 50,0000%00:00 (00:00)
134 Gods vs Humans Sep 5, 2013 $4.9913% (52%)20,000 .. 50,0000%00:00 (00:00)
135 Viking: Battle for Asgard Oct 17, 2012 $14.9913% (52%)1,000,000 .. 2,000,0000.23%02:31 (01:40)
136 X-COM: Enforcer Sep 4, 2008 $4.9913% (52%/65%)200,000 .. 500,0000%00:00 (00:00)
137 Red Faction II Aug 6, 2009 $9.9912% (51%/64%)100,000 .. 200,0000%00:00 (00:00)
138 Master of Orion 3 Feb 25, 2003 $9.99N/A (N/A/64%)100,000 .. 200,0000%00:00 (00:00)
139 X-COM: Interceptor Sep 4, 2008 $4.9911% (49%)500,000 .. 1,000,0000%00:00 (00:00)
140 Aggression: Europe Under Fire May 10, 2007 $9.9910% (48%)50,000 .. 100,0000%00:00 (00:00)
141 Evolution RTS Apr 4, 2014 Free10% (48%)100,000 .. 200,0000%00:00 (00:00)
142 East India Company Jul 31, 2009 $9.9910% (48%/67%)50,000 .. 100,0000%00:00 (00:00)
143 Hero Generations Apr 10, 2015 $5.999% (47%)0 .. 20,0000%00:00 (00:00)
144 Hell Nov 13, 2014 $29.99N/A (N/A)0 .. 20,0000%00:00 (00:00)
145 Leviathan: Warships Apr 30, 2013 $9.999% (47%)200,000 .. 500,0000.64%00:03 (00:01)
146 XIII Century – Gold Edition Aug 28, 2009 $4.999% (46%)50,000 .. 100,0000%00:00 (00:00)
147 Master of Magic Chess May 23, 2017 FreeN/A (N/A)0 .. 20,0000%00:00 (00:00)
148 Arms Dealer Mar 26, 2015 $5.999% (46%)0 .. 20,0000%00:00 (00:00)
149 The Fleets of Sol Apr 1, 2016 $8.99N/A (N/A)0 .. 20,0000%00:00 (00:00)
150 Desperados 2: Cooper's Revenge Mar 12, 2008 $9.998% (44%/66%)50,000 .. 100,0000%00:00 (00:00)
151 Skyward Collapse May 23, 2013 $4.998% (43%/64%)100,000 .. 200,0000%00:00 (00:00)
152 Galactic Civilizations I: Ultimate Edition Aug 14, 2012 $9.998% (43%/83%)200,000 .. 500,0000%00:00 (00:00)
153 DUNGEONS - Steam Special Edition Feb 10, 2011 $9.998% (43%/65%)200,000 .. 500,0000%00:00 (00:00)
154 Shattered Union Oct 25, 2006 $4.997% (42%/67%)20,000 .. 50,0000%00:00 (00:00)
155 Mars 2030 Mar 11, 2016 $4.99N/A (N/A)0 .. 20,0000%00:00 (00:00)
156 Theatre of War 3: Korea Mar 24, 2011 $6.997% (41%/49%)20,000 .. 50,0000%00:00 (00:00)
157 Naval War: Arctic Circle Apr 10, 2012 $19.997% (41%/64%)50,000 .. 100,0000%00:00 (00:00)
158 Guardians of Graxia Nov 10, 2010 $4.997% (41%)50,000 .. 100,0000%00:00 (00:00)
159 Cossacks II: Napoleonic Wars Aug 26, 2011 $4.996% (40%/73%)100,000 .. 200,0000%00:00 (00:00)
160 Ancient Space Sep 23, 2014 $19.996% (40%)20,000 .. 50,0000%00:00 (00:00)
161 Two Worlds II Castle Defense Jun 14, 2011 $9.996% (40%)200,000 .. 500,0002.31%05:17 (05:36)
162 Real Warfare 2: Northern Crusades Nov 18, 2011 $4.996% (40%)20,000 .. 50,0000%00:00 (00:00)
163 Dungeons - The Dark Lord Sep 27, 2011 $19.996% (39%/72%)100,000 .. 200,0000%00:00 (00:00)
164 Fallen: A2P Protocol Aug 14, 2015 $9.995% (35%)0 .. 20,0000%00:00 (00:00)
165 Sacraboar Nov 6, 2009 $2.995% (35%)20,000 .. 50,0000%00:00 (00:00)
166 Arena Wars 2 Oct 12, 2012 $3.994% (32%)50,000 .. 100,0000%00:00 (00:00)
167 Disciples III - Resurrection Oct 11, 2011 $14.994% (32%/63%)100,000 .. 200,0000%00:00 (00:00)
168 US and THEM Mar 8, 2010 $2.994% (31%)20,000 .. 50,0000%00:00 (00:00)
169 The Game of Life Jun 10, 2013 $9.994% (31%)0 .. 20,0000%00:00 (00:00)
170 Feudalism Jun 14, 2016 $14.99N/A (N/A)0 .. 20,0000%00:00 (00:00)
171 Tiestru Aug 20, 2014 $9.99N/A (N/A)20,000 .. 50,0000%00:00 (00:00)
172 Genesis Rising Aug 6, 2007 $4.992% (23%/57%)20,000 .. 50,0000%00:00 (00:00)
173 APOX Jan 20, 2011 $14.992% (23%/48%)20,000 .. 50,0000%00:00 (00:00)
174 Ironclads: American Civil War Apr 28, 2010 $9.99N/A (N/A)20,000 .. 50,0000%00:00 (00:00)
175 Perimeter 2: New Earth Feb 10, 2009 $14.99N/A (N/A/43%)0 .. 20,0000%00:00 (00:00)
176 Tryst Sep 14, 2012 $14.99N/A (N/A/50%)0 .. 20,0000%00:00 (00:00)
177 Prison Tycoon 3: Lockdown Jan 29, 2008 $9.991% (15%)20,000 .. 50,0000%00:00 (00:00)
178 Citadels Jul 25, 2013 $14.991% (12%/20%)20,000 .. 50,0000%00:00 (00:00)

Owners of this game also own:

Access restricted.

This feature is only available to users with special access rights. Sorry.

If you want to proceed, you need to register or log in first and then back Steam Spy on Patreon. Look for Indie or Pro pledge.

Don't forget to use the same email as on Steam Spy!

Playtime distribution:

Access restricted.

This feature is only available to users with special access rights. Sorry.

If you want to proceed, you need to register or log in first and then back Steam Spy on Patreon. Look for Indie or Pro pledge.

Don't forget to use the same email as on Steam Spy!

Playtime (2 weeks):

Access restricted.

This feature is only available to users with special access rights. Sorry.

If you want to proceed, you need to register or log in first and then back Steam Spy on Patreon. Look for Indie or Pro pledge.

Don't forget to use the same email as on Steam Spy!

User reviews:

Login required.

Please register or log in to see this information.